Passez la souris sur le parcours pour voir le détail

Parcours x

Kilomètres   Horaires
Arrivée Départ       44km/h 42km/h 40km/h
190,5 0 D4 Livarot 12:40:00 12:40:00 12:40:00
190,5 0 Livarot 12:50:00 12:50:00 12:50:00
184,5 6 Notre-Dame-de-Courson 12:58:00 12:58:00 12:58:00
183 7,5 D64 Les Moutiers-Hubert 13:00:00 13:00:00 13:01:00
180,5 10 D33 Carrefour D33-D16 13:03:00 13:04:00 13:05:00
178 12,5 D16 Côte de Canapville 13:06:00 13:07:00 13:08:00
174 16,5 Vimoutiers 13:12:00 13:13:00 13:15:00
170 20,5 Guerquesalles 13:17:00 13:19:00 13:20:00
165 25,5 La Bruyère-Fresnay (Champosoult, Survie) 13:25:00 13:26:00 13:28:00
160 30,5 Le Mémorial de Montormel 13:31:00 13:33:00 13:35:00
156 34,5 Chambois 13:37:00 13:39:00 13:41:00
152,5 38 D13 Omméel 13:41:00 13:44:00 13:47:00
149 41,5 Le Calvaire 13:47:00 13:49:00 13:52:00
143 47,5 D26 Exmes 13:54:00 13:58:00 14:01:00
138,5 52 La Tête-au-Loup 14:00:00 14:04:00 14:07:00
138 52,5 D926 Le Pin-au-Haras 14:01:00 14:05:00 14:09:00
134 56,5 Le Bourg-Saint-Léonard 14:07:00 14:10:00 14:14:00
131 59,5 Silly-en-Gouffern 14:11:00 14:15:00 14:19:00
125,5 65 Argentan 14:18:00 14:23:00 14:27:00
125 65,5 Argentan 14:19:00 14:23:00 14:28:00
120,5 70 D924 Carrefour 14:25:00 14:29:00 14:34:00
117 73,5 D2 Fleuré 14:30:00 14:34:00 14:40:00
111 79,5 Boucé 14:38:00 14:43:00 14:49:00
106,5 84 Le Ménil-Scelleur 14:44:00 14:50:00 14:56:00
103 87,5 L'Être-Gautier 14:49:00 14:54:00 15:01:00
102 88,5 Le Vaugeroux 14:50:00 14:56:00 15:02:00
101 89,5 Carrouges 14:51:00 14:57:00 15:04:00
97,5 93 D909 Saint-Martin-des-Landes 14:57:00 15:03:00 15:09:00
95,5 95 D548 La Rousselière 14:59:00 15:05:00 15:12:00
94,5 96 Carrefour D548-D16 15:01:00 15:07:00 15:14:00
92 98,5 D3 Lignières-Orgères 15:04:00 15:11:00 15:18:00
88,5 102 Les Sénaillières 15:09:00 15:15:00 15:23:00
81 109,5 Couptrain 15:19:00 15:26:00 15:34:00
80,5 110 Carrefour D3-D214 15:20:00 15:27:00 15:35:00
79 111,5 D214 Courflux (Neuilly-Le-Vendin) 15:22:00 15:29:00 15:37:00
74 116,5 Carrefour D214-D218 15:29:00 15:36:00 15:44:00
71,5 119 Saint-Julien-du-Terroux 15:32:00 15:40:00 15:48:00
68 122,5 La Baroche-Gondouin 15:37:00 15:45:00 15:53:00
67,5 123 Carrefour D214-D34 15:37:00 15:45:00 15:54:00
63,5 127 D34 Lassay-les-Châteaux 15:43:00 15:51:00 16:00:00
60,5 130 D33 La Barberie 15:47:00 15:55:00 16:04:00
57 133,5 Le Mont Saint-Michel 15:52:00 16:01:00 16:10:00
51,5 139 Ambrières-les-Vallées 15:59:00 16:08:00 16:18:00
49,5 141 La Raimbaudière 16:02:00 16:11:00 16:21:00
49 141,5 La Jarriais 16:02:00 16:12:00 16:22:00
38 152,5 Gorron 16:18:00 16:28:00 16:39:00
33,5 157 Hercé 16:24:00 16:34:00 16:45:00
29 161,5 Lévaré 16:30:00 16:40:00 16:52:00
23,5 167 La Tannière 16:38:00 16:48:00 17:00:00
19 171,5 Saint-Ellier-du-Maine 16:44:00 16:55:00 17:07:00
17 173,5 D806 Le Loroux 16:46:00 16:58:00 17:10:00
14 176,5 Mont Romain 16:50:00 17:02:00 17:14:00
10 180,5 D109 La Chapelle-Janson 16:56:00 17:07:00 17:20:00
7 183,5 D17 Furgon 17:00:00 17:12:00 17:25:00
4 186,5 Carrefour D17-D706 17:04:00 17:16:00 17:29:00
3 187,5 D706 Carrefour D706-N12 17:05:00 17:18:00 17:31:00
1 189,5 N12 Carrefour N12-Vc 17:08:00 17:21:00 17:34:00
0 190,5 Fougères 17:09:00 17:22:00 17:35:00

ROADBOOKx


Statistiques x

Phénomène

Météo

Temps estival très largement ensoleillé tout au long de cette étape. Les températures sont en nette hausse par rapport à la veille et atteindront jusqu'à 28 degrés à l'approche de l'arrivée. Vent faible de secteur Est-Sud-Est de 15km/h et jusqu'à 35km/h dans les rafales.

Température

Vent

Météo x